VIDP/DEL METAR and TAF weather

Enter ICAO airport designator
Station Type Date Time Source
VIDP METAR 2020/10/22 03:00 UTC NOAA

VIDP 220300Z 00000KT 1500 R28/1600 R29/P2000 FU SCT100 24/13 Q1010 NOSIG


Station Type Date Time Source
VIDP Decoded METAR 2020/10/22 03:00 UTC NOAA

New Delhi / Palam, India (VIDP) 28-34N 077-07E 233M
Oct 21, 2020 - 11:00 PM EDT / 2020.10.22 0300 UTC
Wind: Calm:0
Visibility: less than 1 mile:0
Sky conditions: partly cloudy
Weather: smoke
Temperature: 75 F (24 C)
Dew Point: 55 F (13 C)
Relative Humidity: 50%
Pressure (altimeter): 29.83 in. Hg (1010 hPa)
ob: VIDP 220300Z 00000KT 1500 R28/1600 R29/P2000 FU SCT100 24/13 Q1010 NOSIG
cycle: 3

Station Type Date Time Source
VIDP TAF 2020/10/21 18:19 UTC NOAA

TAF VIDP 211700Z 2118/2224 00000KT 3000 HZ FEW100
BECMG 2201/2203 2000 BR FU SCT100
BECMG 2206/2208 34006KT 3500 HZ -RA FEW040
BECMG 2218/2220 00000KT 2500 HZ

Example: see airport list